sensor_id;sensor_type;location;lat;lon;timestamp;temperature;humidity
22450;DHT22;11392;57.390;-2.468;2023-11-21T00:00:16;6.70;99.90
22450;DHT22;11392;57.390;-2.468;2023-11-21T00:02:44;6.70;99.90
22450;DHT22;11392;57.390;-2.468;2023-11-21T00:05:13;6.70;99.90
22450;DHT22;11392;57.390;-2.468;2023-11-21T00:07:43;6.70;99.90
22450;DHT22;11392;57.390;-2.468;2023-11-21T00:10:11;6.70;99.90
22450;DHT22;11392;57.390;-2.468;2023-11-21T00:12:38;6.60;99.90
22450;DHT22;11392;57.390;-2.468;2023-11-21T00:15:09;6.70;99.90
22450;DHT22;11392;57.390;-2.468;2023-11-21T00:17:38;6.60;99.90
22450;DHT22;11392;57.390;-2.468;2023-11-21T00:20:06;6.60;99.90
22450;DHT22;11392;57.390;-2.468;2023-11-21T00:22:36;6.60;99.90
22450;DHT22;11392;57.390;-2.468;2023-11-21T00:25:04;6.60;99.90
22450;DHT22;11392;57.390;-2.468;2023-11-21T00:27:31;6.60;99.90
22450;DHT22;11392;57.390;-2.468;2023-11-21T00:29:58;6.60;99.90
22450;DHT22;11392;57.390;-2.468;2023-11-21T00:32:25;6.60;99.90
22450;DHT22;11392;57.390;-2.468;2023-11-21T00:34:52;6.70;99.90
22450;DHT22;11392;57.390;-2.468;2023-11-21T00:37:21;6.60;99.90
22450;DHT22;11392;57.390;-2.468;2023-11-21T00:39:48;6.60;99.90
22450;DHT22;11392;57.390;-2.468;2023-11-21T00:42:15;6.60;99.90
22450;DHT22;11392;57.390;-2.468;2023-11-21T00:44:42;6.60;99.90
22450;DHT22;11392;57.390;-2.468;2023-11-21T00:47:09;6.60;99.90
22450;DHT22;11392;57.390;-2.468;2023-11-21T00:49:37;6.60;99.90
22450;DHT22;11392;57.390;-2.468;2023-11-21T00:52:06;6.60;99.90
22450;DHT22;11392;57.390;-2.468;2023-11-21T00:54:34;6.50;99.90
22450;DHT22;11392;57.390;-2.468;2023-11-21T00:57:01;6.50;99.90
22450;DHT22;11392;57.390;-2.468;2023-11-21T00:59:28;6.50;99.90
22450;DHT22;11392;57.390;-2.468;2023-11-21T01:01:55;6.40;99.90
22450;DHT22;11392;57.390;-2.468;2023-11-21T01:04:22;6.40;99.90
22450;DHT22;11392;57.390;-2.468;2023-11-21T01:06:49;6.40;99.90
22450;DHT22;11392;57.390;-2.468;2023-11-21T01:09:16;6.30;99.90
22450;DHT22;11392;57.390;-2.468;2023-11-21T01:11:45;6.30;99.90
22450;DHT22;11392;57.390;-2.468;2023-11-21T01:14:13;6.30;99.90
22450;DHT22;11392;57.390;-2.468;2023-11-21T01:16:40;6.30;99.90
22450;DHT22;11392;57.390;-2.468;2023-11-21T01:19:07;6.30;99.90
22450;DHT22;11392;57.390;-2.468;2023-11-21T01:21:36;6.20;99.90
22450;DHT22;11392;57.390;-2.468;2023-11-21T01:24:04;6.20;99.90
22450;DHT22;11392;57.390;-2.468;2023-11-21T01:26:34;6.10;99.90
22450;DHT22;11392;57.390;-2.468;2023-11-21T01:29:01;6.20;99.90
22450;DHT22;11392;57.390;-2.468;2023-11-21T01:31:28;6.10;99.90
22450;DHT22;11392;57.390;-2.468;2023-11-21T01:33:56;6.10;99.90
22450;DHT22;11392;57.390;-2.468;2023-11-21T01:36:30;6.00;99.90
22450;DHT22;11392;57.390;-2.468;2023-11-21T01:39:00;5.90;99.90
22450;DHT22;11392;57.390;-2.468;2023-11-21T01:41:28;5.90;99.90
22450;DHT22;11392;57.390;-2.468;2023-11-21T01:43:55;5.80;99.90
22450;DHT22;11392;57.390;-2.468;2023-11-21T01:46:23;5.60;99.90
22450;DHT22;11392;57.390;-2.468;2023-11-21T01:48:51;5.40;99.90
22450;DHT22;11392;57.390;-2.468;2023-11-21T01:51:20;5.30;99.90
22450;DHT22;11392;57.390;-2.468;2023-11-21T01:53:47;5.30;99.90
22450;DHT22;11392;57.390;-2.468;2023-11-21T01:56:14;5.30;99.90
22450;DHT22;11392;57.390;-2.468;2023-11-21T01:58:42;5.30;99.90
22450;DHT22;11392;57.390;-2.468;2023-11-21T02:01:10;5.30;99.90
22450;DHT22;11392;57.390;-2.468;2023-11-21T02:03:37;5.30;99.90
22450;DHT22;11392;57.390;-2.468;2023-11-21T02:06:05;5.20;99.90
22450;DHT22;11392;57.390;-2.468;2023-11-21T02:08:32;5.20;99.90
22450;DHT22;11392;57.390;-2.468;2023-11-21T02:10:59;5.20;99.90
22450;DHT22;11392;57.390;-2.468;2023-11-21T02:13:26;5.20;99.90
22450;DHT22;11392;57.390;-2.468;2023-11-21T02:15:54;5.20;99.90
22450;DHT22;11392;57.390;-2.468;2023-11-21T02:18:21;5.20;99.90
22450;DHT22;11392;57.390;-2.468;2023-11-21T02:20:49;5.20;99.90
22450;DHT22;11392;57.390;-2.468;2023-11-21T02:23:16;5.20;99.90
22450;DHT22;11392;57.390;-2.468;2023-11-21T02:25:43;5.20;99.90
22450;DHT22;11392;57.390;-2.468;2023-11-21T02:28:10;5.20;99.90
22450;DHT22;11392;57.390;-2.468;2023-11-21T02:30:40;5.00;99.90
22450;DHT22;11392;57.390;-2.468;2023-11-21T02:33:07;5.00;99.90
22450;DHT22;11392;57.390;-2.468;2023-11-21T02:35:35;5.10;99.90
22450;DHT22;11392;57.390;-2.468;2023-11-21T02:38:02;5.10;99.90
22450;DHT22;11392;57.390;-2.468;2023-11-21T02:40:29;5.20;99.90
22450;DHT22;11392;57.390;-2.468;2023-11-21T02:42:57;5.20;99.90
22450;DHT22;11392;57.390;-2.468;2023-11-21T02:45:26;5.20;99.90
22450;DHT22;11392;57.390;-2.468;2023-11-21T02:47:53;5.20;99.90
22450;DHT22;11392;57.390;-2.468;2023-11-21T02:50:25;5.30;99.90
22450;DHT22;11392;57.390;-2.468;2023-11-21T02:52:52;5.30;99.90
22450;DHT22;11392;57.390;-2.468;2023-11-21T02:55:19;5.50;99.90
22450;DHT22;11392;57.390;-2.468;2023-11-21T02:57:46;5.50;99.90
22450;DHT22;11392;57.390;-2.468;2023-11-21T03:00:13;5.50;99.90
22450;DHT22;11392;57.390;-2.468;2023-11-21T03:02:42;5.40;99.90
22450;DHT22;11392;57.390;-2.468;2023-11-21T03:05:10;5.40;99.90
22450;DHT22;11392;57.390;-2.468;2023-11-21T03:07:38;5.40;99.90
22450;DHT22;11392;57.390;-2.468;2023-11-21T03:10:07;5.50;99.90
22450;DHT22;11392;57.390;-2.468;2023-11-21T03:12:39;5.50;99.90
22450;DHT22;11392;57.390;-2.468;2023-11-21T03:15:07;5.40;99.90
22450;DHT22;11392;57.390;-2.468;2023-11-21T03:17:34;5.40;99.90
22450;DHT22;11392;57.390;-2.468;2023-11-21T03:20:02;5.40;99.90
22450;DHT22;11392;57.390;-2.468;2023-11-21T03:22:30;5.40;99.90
22450;DHT22;11392;57.390;-2.468;2023-11-21T03:24:58;5.30;99.90
22450;DHT22;11392;57.390;-2.468;2023-11-21T03:27:25;5.40;99.90
22450;DHT22;11392;57.390;-2.468;2023-11-21T03:29:52;5.30;99.90
22450;DHT22;11392;57.390;-2.468;2023-11-21T03:32:21;5.30;99.90
22450;DHT22;11392;57.390;-2.468;2023-11-21T03:34:56;5.20;99.90
22450;DHT22;11392;57.390;-2.468;2023-11-21T03:37:25;5.10;99.90
22450;DHT22;11392;57.390;-2.468;2023-11-21T03:39:55;5.10;99.90
22450;DHT22;11392;57.390;-2.468;2023-11-21T03:42:24;5.00;99.90
22450;DHT22;11392;57.390;-2.468;2023-11-21T03:44:53;5.00;99.90
22450;DHT22;11392;57.390;-2.468;2023-11-21T03:47:21;4.90;99.90
22450;DHT22;11392;57.390;-2.468;2023-11-21T03:49:48;4.80;99.90
22450;DHT22;11392;57.390;-2.468;2023-11-21T03:52:15;4.70;99.90
22450;DHT22;11392;57.390;-2.468;2023-11-21T03:54:43;4.60;99.90
22450;DHT22;11392;57.390;-2.468;2023-11-21T03:57:11;4.60;99.90
22450;DHT22;11392;57.390;-2.468;2023-11-21T03:59:42;4.40;99.90
22450;DHT22;11392;57.390;-2.468;2023-11-21T04:02:09;4.40;99.90
22450;DHT22;11392;57.390;-2.468;2023-11-21T04:04:36;4.30;99.90
22450;DHT22;11392;57.390;-2.468;2023-11-21T04:07:04;4.20;99.90
22450;DHT22;11392;57.390;-2.468;2023-11-21T04:09:32;4.10;99.90
22450;DHT22;11392;57.390;-2.468;2023-11-21T04:11:59;4.10;99.90
22450;DHT22;11392;57.390;-2.468;2023-11-21T04:14:26;4.00;99.90
22450;DHT22;11392;57.390;-2.468;2023-11-21T04:16:53;4.10;99.90
22450;DHT22;11392;57.390;-2.468;2023-11-21T04:19:21;4.10;99.90
22450;DHT22;11392;57.390;-2.468;2023-11-21T04:21:48;4.20;99.90
22450;DHT22;11392;57.390;-2.468;2023-11-21T04:24:15;4.20;99.90
22450;DHT22;11392;57.390;-2.468;2023-11-21T04:26:44;4.40;99.90
22450;DHT22;11392;57.390;-2.468;2023-11-21T04:29:11;4.50;99.90
22450;DHT22;11392;57.390;-2.468;2023-11-21T04:31:38;4.60;99.90
22450;DHT22;11392;57.390;-2.468;2023-11-21T04:34:05;4.60;99.90
22450;DHT22;11392;57.390;-2.468;2023-11-21T04:36:32;4.60;99.90
22450;DHT22;11392;57.390;-2.468;2023-11-21T04:39:00;4.70;99.90
22450;DHT22;11392;57.390;-2.468;2023-11-21T04:41:27;4.70;99.90
22450;DHT22;11392;57.390;-2.468;2023-11-21T04:43:54;4.60;99.90
22450;DHT22;11392;57.390;-2.468;2023-11-21T04:46:21;4.60;99.90
22450;DHT22;11392;57.390;-2.468;2023-11-21T04:48:48;4.60;99.90
22450;DHT22;11392;57.390;-2.468;2023-11-21T04:51:16;4.50;99.90
22450;DHT22;11392;57.390;-2.468;2023-11-21T04:53:43;4.50;99.90
22450;DHT22;11392;57.390;-2.468;2023-11-21T04:56:10;4.30;99.90
22450;DHT22;11392;57.390;-2.468;2023-11-21T04:58:38;4.30;99.90
22450;DHT22;11392;57.390;-2.468;2023-11-21T05:01:07;4.30;99.90
22450;DHT22;11392;57.390;-2.468;2023-11-21T05:03:35;4.40;99.90
22450;DHT22;11392;57.390;-2.468;2023-11-21T05:06:02;4.40;99.90
22450;DHT22;11392;57.390;-2.468;2023-11-21T05:08:32;4.40;99.90
22450;DHT22;11392;57.390;-2.468;2023-11-21T05:10:59;4.40;99.90
22450;DHT22;11392;57.390;-2.468;2023-11-21T05:13:26;4.30;99.90
22450;DHT22;11392;57.390;-2.468;2023-11-21T05:15:55;4.40;99.90
22450;DHT22;11392;57.390;-2.468;2023-11-21T05:18:25;4.30;99.90
22450;DHT22;11392;57.390;-2.468;2023-11-21T05:20:54;4.20;99.90
22450;DHT22;11392;57.390;-2.468;2023-11-21T05:23:21;4.20;99.90
22450;DHT22;11392;57.390;-2.468;2023-11-21T05:25:48;4.10;99.90
22450;DHT22;11392;57.390;-2.468;2023-11-21T05:28:15;4.10;99.90
22450;DHT22;11392;57.390;-2.468;2023-11-21T05:30:42;4.10;99.90
22450;DHT22;11392;57.390;-2.468;2023-11-21T05:33:09;4.10;99.90
22450;DHT22;11392;57.390;-2.468;2023-11-21T05:35:36;4.10;99.90
22450;DHT22;11392;57.390;-2.468;2023-11-21T05:38:03;4.10;99.90
22450;DHT22;11392;57.390;-2.468;2023-11-21T05:40:31;4.00;99.90
22450;DHT22;11392;57.390;-2.468;2023-11-21T05:42:59;4.00;99.90
22450;DHT22;11392;57.390;-2.468;2023-11-21T05:45:26;4.00;99.90
22450;DHT22;11392;57.390;-2.468;2023-11-21T05:47:55;3.90;99.90
22450;DHT22;11392;57.390;-2.468;2023-11-21T05:50:22;3.80;99.90
22450;DHT22;11392;57.390;-2.468;2023-11-21T05:52:50;3.80;99.90
22450;DHT22;11392;57.390;-2.468;2023-11-21T05:55:17;3.80;99.90
22450;DHT22;11392;57.390;-2.468;2023-11-21T05:57:44;3.70;99.90
22450;DHT22;11392;57.390;-2.468;2023-11-21T06:00:13;3.70;99.90
22450;DHT22;11392;57.390;-2.468;2023-11-21T06:02:51;3.70;99.90
22450;DHT22;11392;57.390;-2.468;2023-11-21T06:05:23;3.70;99.90
22450;DHT22;11392;57.390;-2.468;2023-11-21T06:07:53;3.70;99.90
22450;DHT22;11392;57.390;-2.468;2023-11-21T06:10:21;3.70;99.90
22450;DHT22;11392;57.390;-2.468;2023-11-21T06:12:52;3.70;99.90
22450;DHT22;11392;57.390;-2.468;2023-11-21T06:15:19;3.80;99.90
22450;DHT22;11392;57.390;-2.468;2023-11-21T06:17:48;3.90;99.90
22450;DHT22;11392;57.390;-2.468;2023-11-21T06:20:22;3.90;99.90
22450;DHT22;11392;57.390;-2.468;2023-11-21T06:22:50;3.90;99.90
22450;DHT22;11392;57.390;-2.468;2023-11-21T06:25:18;3.80;99.90
22450;DHT22;11392;57.390;-2.468;2023-11-21T06:27:46;3.80;99.90
22450;DHT22;11392;57.390;-2.468;2023-11-21T06:30:17;3.90;99.90
22450;DHT22;11392;57.390;-2.468;2023-11-21T06:32:45;4.00;99.90
22450;DHT22;11392;57.390;-2.468;2023-11-21T06:35:14;4.00;99.90
22450;DHT22;11392;57.390;-2.468;2023-11-21T06:37:44;4.10;99.90
22450;DHT22;11392;57.390;-2.468;2023-11-21T06:40:18;4.10;99.90
22450;DHT22;11392;57.390;-2.468;2023-11-21T06:42:47;4.10;99.90
22450;DHT22;11392;57.390;-2.468;2023-11-21T06:45:15;4.20;99.90
22450;DHT22;11392;57.390;-2.468;2023-11-21T06:47:42;4.30;99.90
22450;DHT22;11392;57.390;-2.468;2023-11-21T06:50:10;4.30;99.90
22450;DHT22;11392;57.390;-2.468;2023-11-21T06:52:37;4.40;99.90
22450;DHT22;11392;57.390;-2.468;2023-11-21T06:55:06;4.40;99.90
22450;DHT22;11392;57.390;-2.468;2023-11-21T06:57:35;4.50;99.90
22450;DHT22;11392;57.390;-2.468;2023-11-21T07:00:03;4.50;99.90
22450;DHT22;11392;57.390;-2.468;2023-11-21T07:02:30;4.60;99.90
22450;DHT22;11392;57.390;-2.468;2023-11-21T07:04:58;4.60;99.90
22450;DHT22;11392;57.390;-2.468;2023-11-21T07:07:25;4.60;99.90
22450;DHT22;11392;57.390;-2.468;2023-11-21T07:09:52;4.70;99.90
22450;DHT22;11392;57.390;-2.468;2023-11-21T07:12:19;4.70;99.90
22450;DHT22;11392;57.390;-2.468;2023-11-21T07:14:46;4.70;99.90
22450;DHT22;11392;57.390;-2.468;2023-11-21T07:17:13;4.70;99.90
22450;DHT22;11392;57.390;-2.468;2023-11-21T07:19:40;4.70;99.90
22450;DHT22;11392;57.390;-2.468;2023-11-21T07:22:08;4.70;99.90
22450;DHT22;11392;57.390;-2.468;2023-11-21T07:24:36;4.80;99.90
22450;DHT22;11392;57.390;-2.468;2023-11-21T07:27:03;4.70;99.90
22450;DHT22;11392;57.390;-2.468;2023-11-21T07:29:31;4.70;99.90
22450;DHT22;11392;57.390;-2.468;2023-11-21T07:31:58;4.80;99.90
22450;DHT22;11392;57.390;-2.468;2023-11-21T07:34:25;4.70;99.90
22450;DHT22;11392;57.390;-2.468;2023-11-21T07:36:52;4.70;99.90
22450;DHT22;11392;57.390;-2.468;2023-11-21T07:39:20;4.70;99.90
22450;DHT22;11392;57.390;-2.468;2023-11-21T07:41:47;4.70;99.90
22450;DHT22;11392;57.390;-2.468;2023-11-21T07:44:17;4.70;99.90
22450;DHT22;11392;57.390;-2.468;2023-11-21T07:46:44;4.70;99.90
22450;DHT22;11392;57.390;-2.468;2023-11-21T07:49:12;4.80;99.90
22450;DHT22;11392;57.390;-2.468;2023-11-21T07:51:43;4.80;99.90
22450;DHT22;11392;57.390;-2.468;2023-11-21T07:54:11;4.80;99.90
22450;DHT22;11392;57.390;-2.468;2023-11-21T07:56:38;4.80;99.90
22450;DHT22;11392;57.390;-2.468;2023-11-21T07:59:05;4.80;99.90
22450;DHT22;11392;57.390;-2.468;2023-11-21T08:01:32;4.70;99.90
22450;DHT22;11392;57.390;-2.468;2023-11-21T08:04:00;4.70;99.90
22450;DHT22;11392;57.390;-2.468;2023-11-21T08:06:31;4.60;99.90
22450;DHT22;11392;57.390;-2.468;2023-11-21T08:09:00;4.70;99.90
22450;DHT22;11392;57.390;-2.468;2023-11-21T08:11:27;4.70;99.90
22450;DHT22;11392;57.390;-2.468;2023-11-21T08:13:56;4.70;99.90
22450;DHT22;11392;57.390;-2.468;2023-11-21T08:16:24;4.80;99.90
22450;DHT22;11392;57.390;-2.468;2023-11-21T08:18:51;4.70;99.90
22450;DHT22;11392;57.390;-2.468;2023-11-21T08:21:18;4.60;99.90
22450;DHT22;11392;57.390;-2.468;2023-11-21T08:23:46;4.60;99.90
22450;DHT22;11392;57.390;-2.468;2023-11-21T08:26:16;4.60;99.90
22450;DHT22;11392;57.390;-2.468;2023-11-21T08:28:43;4.60;99.90
22450;DHT22;11392;57.390;-2.468;2023-11-21T08:31:10;4.70;99.90
22450;DHT22;11392;57.390;-2.468;2023-11-21T08:33:40;4.60;99.90
22450;DHT22;11392;57.390;-2.468;2023-11-21T08:36:10;4.70;99.90
22450;DHT22;11392;57.390;-2.468;2023-11-21T08:38:39;4.80;99.90
22450;DHT22;11392;57.390;-2.468;2023-11-21T08:41:08;4.90;99.90
22450;DHT22;11392;57.390;-2.468;2023-11-21T08:43:35;4.90;99.90
22450;DHT22;11392;57.390;-2.468;2023-11-21T08:46:07;4.90;99.90
22450;DHT22;11392;57.390;-2.468;2023-11-21T08:48:36;4.90;99.90
22450;DHT22;11392;57.390;-2.468;2023-11-21T08:51:04;4.90;99.90
22450;DHT22;11392;57.390;-2.468;2023-11-21T08:53:31;5.00;99.90
22450;DHT22;11392;57.390;-2.468;2023-11-21T08:55:59;5.00;99.90
22450;DHT22;11392;57.390;-2.468;2023-11-21T08:58:27;5.10;99.90
22450;DHT22;11392;57.390;-2.468;2023-11-21T09:00:54;5.10;99.90
22450;DHT22;11392;57.390;-2.468;2023-11-21T09:03:21;5.10;99.90
22450;DHT22;11392;57.390;-2.468;2023-11-21T09:05:48;5.10;99.90
22450;DHT22;11392;57.390;-2.468;2023-11-21T09:08:15;5.10;99.90
22450;DHT22;11392;57.390;-2.468;2023-11-21T09:10:43;5.10;99.90
22450;DHT22;11392;57.390;-2.468;2023-11-21T09:13:13;5.10;99.90
22450;DHT22;11392;57.390;-2.468;2023-11-21T09:15:43;5.10;99.90
22450;DHT22;11392;57.390;-2.468;2023-11-21T09:18:15;5.10;99.90
22450;DHT22;11392;57.390;-2.468;2023-11-21T09:20:43;5.10;99.90
22450;DHT22;11392;57.390;-2.468;2023-11-21T09:23:11;5.10;99.90
22450;DHT22;11392;57.390;-2.468;2023-11-21T09:25:38;5.10;99.90
22450;DHT22;11392;57.390;-2.468;2023-11-21T09:28:05;5.10;99.90
22450;DHT22;11392;57.390;-2.468;2023-11-21T09:30:35;5.10;99.90
22450;DHT22;11392;57.390;-2.468;2023-11-21T09:33:04;5.20;99.90
22450;DHT22;11392;57.390;-2.468;2023-11-21T09:35:38;5.20;99.90
22450;DHT22;11392;57.390;-2.468;2023-11-21T09:38:05;5.20;99.90
22450;DHT22;11392;57.390;-2.468;2023-11-21T09:40:38;5.20;99.90
22450;DHT22;11392;57.390;-2.468;2023-11-21T09:43:17;5.20;99.90
22450;DHT22;11392;57.390;-2.468;2023-11-21T09:45:56;5.30;99.90
22450;DHT22;11392;57.390;-2.468;2023-11-21T09:48:26;5.20;99.90
22450;DHT22;11392;57.390;-2.468;2023-11-21T09:50:54;5.30;99.90
22450;DHT22;11392;57.390;-2.468;2023-11-21T09:53:21;5.40;99.90
22450;DHT22;11392;57.390;-2.468;2023-11-21T09:55:53;5.40;99.90
22450;DHT22;11392;57.390;-2.468;2023-11-21T09:58:20;5.40;99.90
22450;DHT22;11392;57.390;-2.468;2023-11-21T10:00:55;5.50;99.90
22450;DHT22;11392;57.390;-2.468;2023-11-21T10:03:22;5.50;99.90
22450;DHT22;11392;57.390;-2.468;2023-11-21T10:05:51;5.60;99.90
22450;DHT22;11392;57.390;-2.468;2023-11-21T10:08:22;5.60;99.90
22450;DHT22;11392;57.390;-2.468;2023-11-21T10:10:53;5.70;99.90
22450;DHT22;11392;57.390;-2.468;2023-11-21T10:13:21;5.70;99.90
22450;DHT22;11392;57.390;-2.468;2023-11-21T10:15:50;5.80;99.90
22450;DHT22;11392;57.390;-2.468;2023-11-21T10:18:18;5.90;99.90
22450;DHT22;11392;57.390;-2.468;2023-11-21T10:20:46;6.00;99.90
22450;DHT22;11392;57.390;-2.468;2023-11-21T10:23:21;6.00;99.90
22450;DHT22;11392;57.390;-2.468;2023-11-21T10:25:51;6.10;99.90
22450;DHT22;11392;57.390;-2.468;2023-11-21T10:28:19;6.10;99.90
22450;DHT22;11392;57.390;-2.468;2023-11-21T10:30:48;6.10;99.90
22450;DHT22;11392;57.390;-2.468;2023-11-21T10:33:15;6.10;99.90
22450;DHT22;11392;57.390;-2.468;2023-11-21T10:35:46;6.20;99.90
22450;DHT22;11392;57.390;-2.468;2023-11-21T10:38:18;6.20;99.90
22450;DHT22;11392;57.390;-2.468;2023-11-21T10:40:51;6.30;99.90
22450;DHT22;11392;57.390;-2.468;2023-11-21T10:43:19;6.30;99.90
22450;DHT22;11392;57.390;-2.468;2023-11-21T10:45:46;6.40;99.90
22450;DHT22;11392;57.390;-2.468;2023-11-21T10:48:14;6.50;99.90
22450;DHT22;11392;57.390;-2.468;2023-11-21T10:50:46;6.40;99.90
22450;DHT22;11392;57.390;-2.468;2023-11-21T10:53:14;6.40;99.90
22450;DHT22;11392;57.390;-2.468;2023-11-21T10:55:42;6.50;99.90
22450;DHT22;11392;57.390;-2.468;2023-11-21T10:58:14;6.50;99.90
22450;DHT22;11392;57.390;-2.468;2023-11-21T11:00:41;6.50;99.90
22450;DHT22;11392;57.390;-2.468;2023-11-21T11:03:12;6.40;99.90
22450;DHT22;11392;57.390;-2.468;2023-11-21T11:05:44;6.30;99.90
22450;DHT22;11392;57.390;-2.468;2023-11-21T11:08:21;6.30;99.90
22450;DHT22;11392;57.390;-2.468;2023-11-21T11:10:55;6.40;99.90
22450;DHT22;11392;57.390;-2.468;2023-11-21T11:13:22;6.40;99.90
22450;DHT22;11392;57.390;-2.468;2023-11-21T11:15:51;6.40;99.90
22450;DHT22;11392;57.390;-2.468;2023-11-21T11:18:26;6.40;99.90
22450;DHT22;11392;57.390;-2.468;2023-11-21T11:20:54;6.50;99.90
22450;DHT22;11392;57.390;-2.468;2023-11-21T11:26:32;6.40;99.90
22450;DHT22;11392;57.390;-2.468;2023-11-21T11:34:44;6.40;99.90
22450;DHT22;11392;57.390;-2.468;2023-11-21T11:37:13;6.30;99.90
22450;DHT22;11392;57.390;-2.468;2023-11-21T11:39:42;6.30;99.90
22450;DHT22;11392;57.390;-2.468;2023-11-21T11:42:14;6.30;99.90
22450;DHT22;11392;57.390;-2.468;2023-11-21T11:55:14;6.40;99.90
22450;DHT22;11392;57.390;-2.468;2023-11-21T11:57:43;6.40;99.90
22450;DHT22;11392;57.390;-2.468;2023-11-21T12:02:50;6.50;99.90
22450;DHT22;11392;57.390;-2.468;2023-11-21T12:05:22;6.70;99.90
22450;DHT22;11392;57.390;-2.468;2023-11-21T12:10:19;6.70;99.90
22450;DHT22;11392;57.390;-2.468;2023-11-21T12:12:48;6.60;99.90
22450;DHT22;11392;57.390;-2.468;2023-11-21T12:15:16;6.60;99.90
22450;DHT22;11392;57.390;-2.468;2023-11-21T12:17:44;6.60;99.90
22450;DHT22;11392;57.390;-2.468;2023-11-21T12:20:18;6.60;99.90
22450;DHT22;11392;57.390;-2.468;2023-11-21T12:22:49;6.60;99.90
22450;DHT22;11392;57.390;-2.468;2023-11-21T12:25:27;6.50;99.90
22450;DHT22;11392;57.390;-2.468;2023-11-21T12:28:02;6.40;99.90
22450;DHT22;11392;57.390;-2.468;2023-11-21T12:30:31;6.50;99.90
22450;DHT22;11392;57.390;-2.468;2023-11-21T12:32:59;6.60;99.90
22450;DHT22;11392;57.390;-2.468;2023-11-21T12:35:30;6.60;99.90
22450;DHT22;11392;57.390;-2.468;2023-11-21T12:37:57;6.70;99.90
22450;DHT22;11392;57.390;-2.468;2023-11-21T12:40:25;6.70;99.90
22450;DHT22;11392;57.390;-2.468;2023-11-21T12:42:58;6.60;99.90
22450;DHT22;11392;57.390;-2.468;2023-11-21T12:45:27;6.60;99.90
22450;DHT22;11392;57.390;-2.468;2023-11-21T12:48:00;6.70;99.90
22450;DHT22;11392;57.390;-2.468;2023-11-21T12:50:31;6.60;99.90
22450;DHT22;11392;57.390;-2.468;2023-11-21T12:53:03;6.60;99.90
22450;DHT22;11392;57.390;-2.468;2023-11-21T12:55:33;6.60;99.90
22450;DHT22;11392;57.390;-2.468;2023-11-21T12:58:09;6.60;99.90
22450;DHT22;11392;57.390;-2.468;2023-11-21T13:00:45;6.50;99.90
22450;DHT22;11392;57.390;-2.468;2023-11-21T13:03:14;6.50;99.90
22450;DHT22;11392;57.390;-2.468;2023-11-21T13:05:47;6.40;99.90
22450;DHT22;11392;57.390;-2.468;2023-11-21T13:08:22;6.50;99.90
22450;DHT22;11392;57.390;-2.468;2023-11-21T13:10:55;6.50;99.90
22450;DHT22;11392;57.390;-2.468;2023-11-21T13:13:25;6.50;99.90
22450;DHT22;11392;57.390;-2.468;2023-11-21T13:15:57;6.40;99.90
22450;DHT22;11392;57.390;-2.468;2023-11-21T13:18:28;6.30;99.90
22450;DHT22;11392;57.390;-2.468;2023-11-21T13:20:58;6.30;99.90
22450;DHT22;11392;57.390;-2.468;2023-11-21T13:23:27;6.30;99.90
22450;DHT22;11392;57.390;-2.468;2023-11-21T13:25:57;6.30;99.90
22450;DHT22;11392;57.390;-2.468;2023-11-21T13:28:33;6.30;99.90
22450;DHT22;11392;57.390;-2.468;2023-11-21T13:31:02;6.30;99.90
22450;DHT22;11392;57.390;-2.468;2023-11-21T13:33:38;6.20;99.90
22450;DHT22;11392;57.390;-2.468;2023-11-21T13:36:06;6.20;99.90
22450;DHT22;11392;57.390;-2.468;2023-11-21T13:38:36;6.20;99.90
22450;DHT22;11392;57.390;-2.468;2023-11-21T13:41:04;6.20;99.90
22450;DHT22;11392;57.390;-2.468;2023-11-21T13:43:34;6.20;99.90
22450;DHT22;11392;57.390;-2.468;2023-11-21T13:46:03;6.20;99.90
22450;DHT22;11392;57.390;-2.468;2023-11-21T13:48:40;6.20;99.90
22450;DHT22;11392;57.390;-2.468;2023-11-21T13:51:10;6.20;99.90
22450;DHT22;11392;57.390;-2.468;2023-11-21T13:53:45;6.20;99.90
22450;DHT22;11392;57.390;-2.468;2023-11-21T13:56:15;6.00;99.90
22450;DHT22;11392;57.390;-2.468;2023-11-21T13:58:46;5.90;99.90
22450;DHT22;11392;57.390;-2.468;2023-11-21T14:01:19;5.90;99.90
22450;DHT22;11392;57.390;-2.468;2023-11-21T14:04:01;6.00;99.90
22450;DHT22;11392;57.390;-2.468;2023-11-21T14:06:48;6.00;99.90
22450;DHT22;11392;57.390;-2.468;2023-11-21T14:09:18;6.10;99.90
22450;DHT22;11392;57.390;-2.468;2023-11-21T14:11:55;6.10;99.90
22450;DHT22;11392;57.390;-2.468;2023-11-21T14:14:26;6.00;99.90
22450;DHT22;11392;57.390;-2.468;2023-11-21T14:16:54;6.00;99.90
22450;DHT22;11392;57.390;-2.468;2023-11-21T14:19:23;6.00;99.90
22450;DHT22;11392;57.390;-2.468;2023-11-21T14:21:54;6.00;99.90
22450;DHT22;11392;57.390;-2.468;2023-11-21T14:24:21;6.00;99.90
22450;DHT22;11392;57.390;-2.468;2023-11-21T14:26:50;5.90;99.90
22450;DHT22;11392;57.390;-2.468;2023-11-21T14:29:19;5.90;99.90
22450;DHT22;11392;57.390;-2.468;2023-11-21T14:31:47;5.80;99.90
22450;DHT22;11392;57.390;-2.468;2023-11-21T14:34:15;5.80;99.90
22450;DHT22;11392;57.390;-2.468;2023-11-21T14:36:47;5.80;99.90
22450;DHT22;11392;57.390;-2.468;2023-11-21T14:39:16;5.80;99.90
22450;DHT22;11392;57.390;-2.468;2023-11-21T14:41:52;5.80;99.90
22450;DHT22;11392;57.390;-2.468;2023-11-21T14:44:20;5.70;99.90
22450;DHT22;11392;57.390;-2.468;2023-11-21T14:46:50;5.70;99.90
22450;DHT22;11392;57.390;-2.468;2023-11-21T14:49:19;5.70;99.90
22450;DHT22;11392;57.390;-2.468;2023-11-21T14:51:47;5.70;99.90
22450;DHT22;11392;57.390;-2.468;2023-11-21T14:54:30;5.60;99.90
22450;DHT22;11392;57.390;-2.468;2023-11-21T14:57:13;5.60;99.90
22450;DHT22;11392;57.390;-2.468;2023-11-21T14:59:47;5.60;99.90
22450;DHT22;11392;57.390;-2.468;2023-11-21T15:02:18;5.60;99.90
22450;DHT22;11392;57.390;-2.468;2023-11-21T15:04:49;5.60;99.90
22450;DHT22;11392;57.390;-2.468;2023-11-21T15:07:26;5.50;99.90
22450;DHT22;11392;57.390;-2.468;2023-11-21T15:09:54;5.50;99.90
22450;DHT22;11392;57.390;-2.468;2023-11-21T15:12:21;5.60;99.90
22450;DHT22;11392;57.390;-2.468;2023-11-21T15:14:53;5.50;99.90
22450;DHT22;11392;57.390;-2.468;2023-11-21T15:17:22;5.50;99.90
22450;DHT22;11392;57.390;-2.468;2023-11-21T15:19:54;5.50;99.90
22450;DHT22;11392;57.390;-2.468;2023-11-21T15:22:21;5.50;99.90
22450;DHT22;11392;57.390;-2.468;2023-11-21T15:24:49;5.50;99.90
22450;DHT22;11392;57.390;-2.468;2023-11-21T15:27:17;5.40;99.90
22450;DHT22;11392;57.390;-2.468;2023-11-21T15:29:45;5.40;99.90
22450;DHT22;11392;57.390;-2.468;2023-11-21T15:32:13;5.30;99.90
22450;DHT22;11392;57.390;-2.468;2023-11-21T15:34:40;5.30;99.90
22450;DHT22;11392;57.390;-2.468;2023-11-21T15:37:08;5.30;99.90
22450;DHT22;11392;57.390;-2.468;2023-11-21T15:39:39;5.30;99.90
22450;DHT22;11392;57.390;-2.468;2023-11-21T15:42:06;5.30;99.90
22450;DHT22;11392;57.390;-2.468;2023-11-21T15:44:37;5.30;99.90
22450;DHT22;11392;57.390;-2.468;2023-11-21T15:47:04;5.30;99.90
22450;DHT22;11392;57.390;-2.468;2023-11-21T15:49:33;5.30;99.90
22450;DHT22;11392;57.390;-2.468;2023-11-21T15:52:06;5.30;99.90
22450;DHT22;11392;57.390;-2.468;2023-11-21T15:54:35;5.30;99.90
22450;DHT22;11392;57.390;-2.468;2023-11-21T15:57:03;5.20;99.90
22450;DHT22;11392;57.390;-2.468;2023-11-21T15:59:31;5.20;99.90
22450;DHT22;11392;57.390;-2.468;2023-11-21T16:02:00;5.10;99.90
22450;DHT22;11392;57.390;-2.468;2023-11-21T16:04:28;5.00;99.90